Weather at Fairbanks International Airport

Public forecast

Using degrees Fahrenheit for public forecast. Weather courtesy of forecast.io.

Current aviation weather report (METAR) for Fairbanks International Airport

Report is more than 2 hours old.

2024/06/24 20:53 (retrieved 2 hours ago)

PAFA 242053Z 00000KT 2SM FU BKN014 BKN110 22/09 A2988

Aviation forecast (TAF) for Fairbanks International Airport

2024/06/24 20:42 Ammendment (retrieved 3 hours ago)

AMD PAFA 242020Z 2420/2524 VRB04KT 3SM FU VCSH SCT040 BKN080 TEMPO 2420/2423 1 1/2SM FU SCT007 BKN015 FM242300 27006KT P6SM VCTS BKN080CB FM251200 VRB03KT 6SM FU SCT060 BKN120 FM251800 12003KT 4SM FU VCTS SCT040CB BKN080